createdAt,value
2023-02-08T01:50:18.103Z,26.55
2023-02-08T01:51:18.127Z,26.54
2023-02-08T01:52:18.178Z,26.51
2023-02-08T01:53:18.192Z,26.53
2023-02-08T01:54:18.202Z,26.52
2023-02-08T01:55:18.219Z,26.52
2023-02-08T01:56:18.250Z,26.55
2023-02-08T01:57:18.250Z,26.54
2023-02-08T01:58:18.287Z,26.52
2023-02-08T01:59:18.287Z,26.52
2023-02-08T02:00:18.304Z,26.52
2023-02-08T02:01:18.379Z,26.52
2023-02-08T02:02:18.362Z,26.51
2023-02-08T02:03:18.350Z,26.49
2023-02-08T02:04:18.376Z,26.50
2023-02-08T02:05:18.377Z,26.47
2023-02-08T02:06:18.382Z,26.45
2023-02-08T02:07:18.394Z,26.48
2023-02-08T02:08:18.405Z,26.49
2023-02-08T02:09:18.409Z,26.47
2023-02-08T02:10:18.431Z,26.46
2023-02-08T02:11:18.449Z,26.48
2023-02-08T02:12:18.450Z,26.49
2023-02-08T02:13:18.511Z,26.46
2023-02-08T02:14:18.499Z,26.47
2023-02-08T02:15:18.522Z,26.46
2023-02-08T02:16:18.556Z,26.46
2023-02-08T02:17:18.557Z,26.47
2023-02-08T02:18:18.599Z,26.50
2023-02-08T02:19:18.615Z,26.47
2023-02-08T02:20:18.633Z,26.48
2023-02-08T02:21:18.641Z,26.47
2023-02-08T02:22:18.681Z,26.47
2023-02-08T02:23:18.680Z,26.50
2023-02-08T02:24:18.698Z,26.48
2023-02-08T02:25:18.734Z,26.48
2023-02-08T02:26:18.753Z,26.47
2023-02-08T02:27:18.774Z,26.48
2023-02-08T02:28:18.851Z,26.48
2023-02-08T02:29:18.815Z,26.48
2023-02-08T02:30:18.836Z,26.47
2023-02-08T02:31:19.017Z,26.46
2023-02-08T02:32:18.884Z,26.47
2023-02-08T02:33:18.903Z,26.46
2023-02-08T02:34:18.914Z,26.47
2023-02-08T02:35:18.937Z,26.47
2023-02-08T02:36:18.955Z,26.47
2023-02-08T02:37:18.973Z,26.45
2023-02-08T02:38:18.990Z,26.47
2023-02-08T02:39:19.012Z,26.46
2023-02-08T02:40:19.027Z,26.45
2023-02-08T02:41:19.040Z,26.46
2023-02-08T02:42:19.058Z,26.45
2023-02-08T02:43:19.073Z,26.45
2023-02-08T02:44:19.101Z,26.45
2023-02-08T02:45:19.242Z,26.44
2023-02-08T02:46:19.126Z,26.45
2023-02-08T02:47:19.156Z,26.45
2023-02-08T02:48:19.174Z,26.46
2023-02-08T02:49:19.197Z,26.46
2023-02-08T02:50:19.218Z,26.44
2023-02-08T02:51:19.225Z,26.45
2023-02-08T02:52:19.262Z,26.48
2023-02-08T02:53:19.263Z,26.48
2023-02-08T02:54:19.292Z,26.46
2023-02-08T02:55:19.323Z,26.47
2023-02-08T02:56:19.316Z,26.44
2023-02-08T02:57:19.328Z,26.44
2023-02-08T02:58:19.354Z,26.42
2023-02-08T02:59:19.374Z,26.46
2023-02-08T03:00:19.383Z,26.44
2023-02-08T03:01:19.465Z,26.44
2023-02-08T03:02:19.410Z,26.43
2023-02-08T03:03:19.426Z,26.46
2023-02-08T03:26:19.834Z,26.40
2023-02-08T03:32:19.915Z,26.40
2023-02-08T03:33:19.950Z,26.42
2023-02-08T03:34:19.958Z,26.41
2023-02-08T03:35:19.978Z,26.38
2023-02-08T03:36:19.983Z,26.39
2023-02-08T03:37:20.015Z,26.41
2023-02-08T03:38:20.026Z,26.36
2023-02-08T03:39:20.057Z,26.37
2023-02-08T03:40:20.090Z,26.40
2023-02-08T03:41:20.094Z,26.36
2023-02-08T03:42:20.117Z,26.36
2023-02-08T03:43:20.146Z,26.38
2023-02-08T03:44:20.170Z,26.39
2023-02-08T03:45:20.184Z,26.36
2023-02-08T03:46:20.294Z,26.37
2023-02-08T03:47:20.223Z,26.38
2023-02-08T03:48:20.243Z,26.35
2023-02-08T03:49:20.262Z,26.34
2023-02-08T03:50:20.288Z,26.34
2023-02-08T03:51:20.313Z,26.32
2023-02-08T03:52:20.338Z,26.34
2023-02-08T03:53:20.350Z,26.35
2023-02-08T03:54:20.380Z,26.32
2023-02-08T03:55:20.397Z,26.34
2023-02-08T03:56:20.423Z,26.36
2023-02-08T03:57:20.442Z,26.34
2023-02-08T03:58:20.461Z,26.34
2023-02-08T03:59:20.484Z,26.34
2023-02-08T04:00:20.503Z,26.32
2023-02-08T04:01:20.552Z,26.34
2023-02-08T04:02:20.584Z,26.33
2023-02-08T04:03:20.570Z,26.35
2023-02-08T04:04:20.580Z,26.35
2023-02-08T04:05:20.605Z,26.33
2023-02-08T04:06:20.616Z,26.29
2023-02-08T04:07:20.627Z,26.31
2023-02-08T04:08:20.637Z,26.30
2023-02-08T04:09:20.706Z,26.32
2023-02-08T04:10:20.666Z,26.29
2023-02-08T04:11:20.699Z,26.28
2023-02-08T04:12:20.709Z,26.28
2023-02-08T04:13:20.733Z,26.26
2023-02-08T04:14:20.727Z,26.27
2023-02-08T04:15:20.749Z,26.26
2023-02-08T04:16:20.769Z,26.27
2023-02-08T04:17:20.785Z,26.26
2023-02-08T04:18:20.791Z,26.25
2023-02-08T04:19:20.819Z,26.24
2023-02-08T04:20:20.827Z,26.25
2023-02-08T04:21:20.843Z,26.25
2023-02-08T04:22:20.837Z,26.24
2023-02-08T04:23:20.834Z,26.24
2023-02-08T04:24:20.839Z,26.24
2023-02-08T04:25:20.842Z,26.23
2023-02-08T04:26:20.833Z,26.23
2023-02-08T04:27:20.829Z,26.22
2023-02-08T04:28:20.865Z,26.21
2023-02-08T04:30:20.814Z,26.19
2023-02-08T05:15:21.460Z,26.01
2023-02-08T05:16:21.543Z,26.04
2023-02-08T05:17:21.508Z,26.04
2023-02-08T05:18:21.541Z,26.02
2023-02-08T05:19:21.553Z,26.01
2023-02-08T05:20:21.595Z,26.02
2023-02-08T05:21:21.636Z,26.03
2023-02-08T05:22:21.664Z,26.01
2023-02-08T05:23:21.727Z,26.02
2023-02-08T05:24:21.781Z,26.03
2023-02-08T05:25:21.814Z,26.05
2023-02-08T05:26:21.843Z,26.03
2023-02-08T05:27:21.867Z,26.03
2023-02-08T05:28:21.895Z,26.04
2023-02-08T05:29:21.917Z,26.01
2023-02-08T05:30:21.961Z,26.01
2023-02-08T05:31:22.054Z,26.01
2023-02-08T05:32:22.003Z,26.02
2023-02-08T05:33:22.030Z,26.02
2023-02-08T05:34:22.069Z,26.01
2023-02-08T05:35:22.088Z,26.02
2023-02-08T05:36:22.089Z,26.02
2023-02-08T05:37:22.125Z,26.02
2023-02-08T05:38:22.147Z,26.01
2023-02-08T05:39:22.161Z,26.01
2023-02-08T05:40:22.199Z,26.00
2023-02-08T05:41:22.304Z,26.01
2023-02-08T05:42:22.308Z,26.02
2023-02-08T05:43:22.349Z,26.01
2023-02-08T05:44:22.359Z,26.00
2023-02-08T05:45:22.401Z,26.01
2023-02-08T05:46:22.473Z,26.01
2023-02-08T05:47:22.452Z,26.01
2023-02-08T05:48:22.483Z,26.00
2023-02-08T05:49:22.521Z,26.02
2023-02-08T05:50:22.493Z,26.00
2023-02-08T05:51:22.507Z,26.01
2023-02-08T05:52:22.508Z,26.02
2023-02-08T05:53:22.515Z,26.00
2023-02-08T05:54:22.551Z,26.01
2023-02-08T05:55:22.596Z,25.99
2023-02-08T05:56:22.670Z,26.00
2023-02-08T05:57:22.699Z,26.00
2023-02-08T05:58:22.711Z,26.00
2023-02-08T05:59:22.716Z,26.02
2023-02-08T06:00:22.739Z,26.00
2023-02-08T06:01:22.759Z,26.00
2023-02-08T06:02:22.775Z,26.00
2023-02-08T06:03:22.832Z,26.01
2023-02-08T06:04:22.789Z,26.02
2023-02-08T06:05:22.781Z,26.02
2023-02-08T06:06:22.786Z,26.01
2023-02-08T06:07:22.809Z,26.01
2023-02-08T06:08:22.830Z,26.01
2023-02-08T06:09:22.879Z,26.02
2023-02-08T06:10:22.901Z,26.03
2023-02-08T06:11:22.954Z,26.01
2023-02-08T06:12:22.904Z,26.03
2023-02-08T06:13:22.927Z,26.03
2023-02-08T06:14:22.953Z,26.03
2023-02-08T06:15:22.983Z,26.02
2023-02-08T06:16:23.011Z,26.02
2023-02-08T06:17:23.010Z,26.02
2023-02-08T06:18:23.032Z,26.03
2023-02-08T06:19:23.046Z,26.06
2023-02-08T06:20:23.080Z,26.07
2023-02-08T06:21:24.564Z,26.32
2023-02-08T06:22:23.057Z,26.35
2023-02-08T06:23:23.070Z,27.34
2023-02-08T06:24:23.098Z,27.11
2023-02-08T06:25:23.135Z,27.13
2023-02-08T06:26:23.173Z,27.40
2023-02-08T06:27:23.180Z,27.48
2023-02-08T06:28:23.266Z,27.76
2023-02-08T06:29:23.232Z,28.08
2023-02-08T06:30:23.235Z,28.19
2023-02-08T06:31:23.297Z,28.34
2023-02-08T06:32:23.354Z,28.25
2023-02-08T06:33:23.348Z,28.28
2023-02-08T06:34:23.460Z,28.11
2023-02-08T06:35:24.307Z,27.96
2023-02-08T06:36:23.511Z,27.75
2023-02-08T06:37:23.527Z,27.70
2023-02-08T06:38:23.540Z,27.72
2023-02-08T06:39:23.587Z,27.42
2023-02-08T06:40:23.617Z,27.07
2023-02-08T06:41:23.649Z,26.89
2023-02-08T06:42:23.665Z,26.73
2023-02-08T06:43:23.663Z,26.62
2023-02-08T06:44:23.673Z,26.56
2023-02-08T06:45:23.694Z,26.48
2023-02-08T06:46:23.689Z,26.31
2023-02-08T06:47:23.716Z,26.10
2023-02-08T06:48:23.716Z,25.94
2023-02-08T06:49:23.702Z,25.94
2023-02-08T06:50:24.249Z,25.89
2023-02-08T06:51:23.682Z,25.74
2023-02-08T06:52:23.688Z,25.66
2023-02-08T06:53:23.680Z,25.56
2023-02-08T06:54:23.724Z,25.54
2023-02-08T06:55:23.714Z,25.51
2023-02-08T06:56:23.704Z,25.49
2023-02-08T06:57:23.736Z,25.48
2023-02-08T06:58:23.754Z,25.39
2023-02-08T06:59:23.761Z,25.28
2023-02-08T07:00:23.775Z,25.31
2023-02-08T07:01:23.862Z,25.25
2023-02-08T07:02:23.872Z,25.20
2023-02-08T07:03:23.785Z,25.19
2023-02-08T07:04:23.799Z,25.17
2023-02-08T07:05:23.795Z,25.12
2023-02-08T07:06:23.804Z,25.09
2023-02-08T07:07:23.799Z,25.06
2023-02-08T07:08:23.811Z,25.03
2023-02-08T07:09:23.826Z,25.01
2023-02-08T07:10:23.818Z,24.98
2023-02-08T07:11:23.832Z,24.97
2023-02-08T07:12:23.837Z,24.89
2023-02-08T07:13:23.835Z,24.88
2023-02-08T07:14:23.857Z,24.87
2023-02-08T07:15:23.857Z,24.89
2023-02-08T07:16:23.891Z,24.88
2023-02-08T07:17:23.857Z,24.92
2023-02-08T07:18:23.854Z,24.89
2023-02-08T07:19:23.850Z,24.86
2023-02-08T07:20:23.872Z,24.91
2023-02-08T07:21:23.828Z,24.95
2023-02-08T07:22:23.863Z,25.04
2023-02-08T07:23:23.877Z,25.40
2023-02-08T10:10:00.212Z,29.43
2023-02-08T10:11:00.064Z,28.09
2023-02-08T10:11:59.980Z,26.01
2023-02-08T10:12:59.884Z,24.41
2023-02-08T10:13:59.854Z,23.27
2023-02-08T10:14:59.739Z,22.49
2023-02-08T10:15:59.707Z,22.10
2023-02-08T10:16:59.551Z,21.85
2023-02-08T10:17:59.510Z,21.62
2023-02-08T10:19:59.224Z,22.56
2023-02-08T10:20:59.107Z,23.70
2023-02-08T10:21:58.976Z,24.86
2023-02-08T10:22:58.830Z,25.79
2023-02-08T10:23:58.687Z,26.58
2023-02-08T10:24:58.587Z,27.11
2023-02-08T10:25:58.488Z,27.65
2023-02-08T10:26:58.368Z,28.09
2023-02-08T10:27:58.262Z,28.47
2023-02-08T10:28:58.193Z,28.56
2023-02-08T12:48:49.514Z,29.12
2023-02-08T12:57:49.129Z,29.18
2023-02-08T12:59:49.059Z,29.23
2023-02-08T13:00:49.026Z,29.21
2023-02-08T13:01:48.989Z,29.23
2023-02-08T13:02:48.956Z,29.23
2023-02-08T13:03:48.883Z,29.22
2023-02-08T13:04:48.845Z,29.25
2023-02-08T13:06:48.762Z,29.27
2023-02-08T13:07:48.741Z,29.30
2023-02-08T13:08:48.712Z,29.30
2023-02-08T13:12:48.601Z,29.34
2023-02-08T13:13:48.582Z,29.35
2023-02-08T13:14:48.551Z,29.33
2023-02-08T13:15:48.554Z,29.33
2023-02-08T13:16:48.498Z,29.35
2023-02-08T13:17:48.499Z,29.34
2023-02-08T13:18:48.466Z,29.37
2023-02-08T13:19:59.737Z,29.38
2023-02-08T13:20:49.372Z,29.38
2023-02-08T13:21:48.275Z,29.39
2023-02-08T13:22:48.197Z,29.40
2023-02-08T13:23:52.917Z,29.41
2023-02-08T13:24:52.446Z,29.43
2023-02-08T13:25:48.958Z,29.44
2023-02-08T14:49:41.147Z,29.57
2023-02-08T14:50:41.090Z,29.56
2023-02-08T14:51:41.028Z,29.58
2023-02-08T14:52:40.957Z,29.58
2023-02-08T14:53:40.897Z,29.54
2023-02-08T14:54:40.833Z,29.55
2023-02-08T14:55:40.826Z,29.57
2023-02-08T14:56:40.696Z,29.61
2023-02-08T14:57:40.643Z,29.58
2023-02-08T14:58:40.564Z,29.55
2023-02-08T14:59:40.507Z,29.57
2023-02-08T15:00:40.466Z,29.55
2023-02-08T15:01:44.119Z,29.55
2023-02-08T15:02:40.293Z,29.59
2023-02-08T15:03:40.203Z,29.61
2023-02-08T15:04:40.117Z,29.60
2023-02-08T15:05:40.024Z,29.60
2023-02-08T15:06:39.939Z,29.56
2023-02-08T15:07:39.851Z,29.55
2023-02-08T15:08:39.767Z,29.55
2023-02-08T15:09:39.676Z,29.52
2023-02-08T15:10:39.602Z,29.52
2023-02-08T15:11:39.513Z,29.50
2023-02-08T15:12:39.445Z,29.56
2023-02-08T15:13:39.368Z,29.54
2023-02-08T15:14:39.266Z,29.54
2023-02-08T15:15:39.194Z,29.52
2023-02-08T15:16:39.118Z,29.55
2023-02-08T15:17:39.026Z,29.52
2023-02-08T15:18:38.923Z,29.58
2023-02-08T15:19:38.844Z,29.54
2023-02-08T15:20:38.753Z,29.52
2023-02-08T15:21:38.679Z,29.49
2023-02-08T15:22:38.596Z,29.49
2023-02-08T15:23:38.596Z,29.55
2023-02-08T15:24:38.424Z,29.52
2023-02-08T15:25:38.333Z,29.48
2023-02-08T15:26:38.265Z,29.52
2023-02-08T15:27:38.190Z,29.50
2023-02-08T15:47:36.547Z,29.46
2023-02-08T15:48:36.450Z,29.48
2023-02-08T15:49:36.370Z,29.46
2023-02-08T15:50:36.286Z,29.44
2023-02-08T15:51:36.212Z,29.48
2023-02-08T15:52:36.134Z,29.47
2023-02-08T15:53:36.066Z,29.46
2023-02-08T15:54:35.964Z,29.48
2023-02-08T15:55:35.883Z,29.49
2023-02-08T15:56:39.033Z,29.48
2023-02-08T15:57:35.709Z,29.46
2023-02-08T15:58:35.654Z,29.44
2023-02-08T15:59:35.545Z,29.45
2023-02-08T16:00:35.462Z,29.42
2023-02-08T16:01:35.435Z,29.45
2023-02-08T16:02:35.282Z,29.44
2023-02-08T16:03:35.289Z,29.42
2023-02-08T18:23:29.204Z,28.86
2023-02-08T18:24:29.168Z,28.86
2023-02-08T18:25:29.147Z,28.84
2023-02-08T18:26:29.125Z,28.84
2023-02-08T18:27:29.095Z,28.83
2023-02-08T18:28:29.138Z,28.81
2023-02-08T18:29:29.046Z,28.82
2023-02-08T18:30:29.019Z,28.82
2023-02-08T18:31:29.082Z,28.83
2023-02-08T18:32:28.968Z,28.81
2023-02-08T18:33:28.952Z,28.81
2023-02-08T18:34:28.916Z,28.81
2023-02-08T18:35:28.899Z,28.80
2023-02-08T18:36:28.871Z,28.82
2023-02-08T18:37:28.875Z,28.81
2023-02-08T18:38:28.834Z,28.80
2023-02-08T18:39:28.801Z,28.79
2023-02-08T18:40:30.469Z,28.78
2023-02-08T18:41:28.718Z,28.78
2023-02-08T18:42:28.636Z,28.78
2023-02-08T18:43:28.545Z,28.77
2023-02-08T18:44:28.472Z,28.76
2023-02-08T18:45:28.416Z,28.75
2023-02-08T18:46:28.367Z,28.76
2023-02-08T18:47:28.251Z,28.75
2023-02-08T18:48:28.184Z,28.72
2023-02-08T18:49:28.098Z,28.74
2023-02-08T18:50:28.028Z,28.74
2023-02-08T18:51:27.957Z,28.70
2023-02-08T18:52:28.851Z,28.73
2023-02-08T18:53:27.774Z,28.72
2023-02-08T18:54:27.702Z,28.71
2023-02-08T18:55:27.633Z,28.68
2023-02-08T18:56:27.563Z,28.67
2023-02-08T18:57:27.479Z,28.68
2023-02-08T18:58:27.442Z,28.69
2023-02-08T18:59:27.421Z,28.64
2023-02-08T19:00:27.426Z,28.66
2023-02-08T19:01:27.361Z,28.66
2023-02-08T19:02:27.361Z,28.63
2023-02-08T19:03:27.310Z,28.62
2023-02-08T19:04:27.284Z,28.64
2023-02-08T19:05:27.907Z,28.64
2023-02-08T19:06:27.260Z,28.64
2023-02-08T19:07:27.247Z,28.64
2023-02-08T19:08:27.182Z,28.63
2023-02-08T19:09:27.170Z,28.64
2023-02-08T19:10:27.210Z,28.63
2023-02-08T19:11:27.166Z,28.61
2023-02-08T19:12:27.087Z,28.58
2023-02-08T19:13:27.065Z,28.62
2023-02-08T19:14:27.038Z,28.65
2023-02-08T19:15:27.026Z,28.62
2023-02-08T19:16:27.028Z,28.59
2023-02-08T19:17:26.984Z,28.60
2023-02-08T19:18:26.951Z,28.61
2023-02-08T19:19:26.927Z,28.60
2023-02-08T19:20:26.906Z,28.58
2023-02-08T19:21:26.862Z,28.58
2023-02-08T19:22:26.852Z,28.58
2023-02-08T19:23:26.825Z,28.59
2023-02-08T19:24:26.792Z,28.57
2023-02-08T19:25:26.751Z,28.54
2023-02-08T19:26:26.737Z,28.56
2023-02-08T19:27:26.683Z,28.57
2023-02-08T19:28:26.677Z,28.53
2023-02-08T19:29:26.629Z,28.53
2023-02-08T19:30:26.607Z,28.55
2023-02-08T19:31:26.775Z,28.55
2023-02-08T19:32:26.569Z,28.52
2023-02-08T19:33:26.543Z,28.51
2023-02-08T19:34:26.512Z,28.53
2023-02-08T19:35:26.507Z,28.53
2023-02-08T19:36:26.476Z,28.51
2023-02-08T19:37:26.459Z,28.51
2023-02-08T19:38:26.425Z,28.49
2023-02-08T19:39:26.406Z,28.47
2023-02-08T19:40:26.368Z,28.50
2023-02-08T19:41:26.301Z,28.47
2023-02-08T19:42:26.275Z,28.47
2023-02-08T19:43:26.254Z,28.49
2023-02-08T19:44:29.086Z,28.47
2023-02-08T19:45:26.193Z,28.48
2023-02-08T19:46:26.068Z,28.48
2023-02-08T19:47:43.481Z,28.48
2023-02-08T19:48:26.918Z,28.48
2023-02-08T19:49:25.925Z,28.48
2023-02-08T19:50:25.751Z,28.48
2023-02-08T19:51:25.688Z,28.48
2023-02-08T19:52:25.612Z,28.47
2023-02-08T19:53:25.541Z,28.48
2023-02-08T19:54:25.462Z,28.45
2023-02-08T19:55:25.378Z,28.46
2023-02-08T19:56:25.312Z,28.46
2023-02-08T19:57:25.229Z,28.45
2023-02-08T21:01:23.883Z,28.17
2023-02-08T21:21:23.490Z,28.07
2023-02-08T21:22:23.469Z,28.09
2023-02-08T21:23:23.433Z,28.09
2023-02-08T21:24:23.439Z,28.08
2023-02-08T21:25:23.414Z,28.05
2023-02-08T21:26:23.398Z,28.05
2023-02-08T21:27:23.374Z,28.04
2023-02-08T21:28:23.517Z,28.03
2023-02-08T21:29:23.333Z,28.05
2023-02-08T21:30:23.296Z,28.04
2023-02-08T21:31:23.405Z,28.03
2023-02-08T21:32:23.270Z,28.03
2023-02-08T21:33:23.249Z,28.03
2023-02-08T21:34:23.236Z,28.03
2023-02-08T21:35:23.236Z,28.03
2023-02-08T21:36:23.274Z,28.02
2023-02-08T21:37:23.179Z,28.00
2023-02-08T21:38:23.163Z,28.02
2023-02-08T21:39:23.157Z,28.02
2023-02-08T21:40:23.120Z,28.00
2023-02-08T21:41:23.156Z,28.01
2023-02-08T21:42:23.085Z,28.03
2023-02-08T21:43:23.077Z,28.01
2023-02-08T21:44:23.059Z,28.01
2023-02-08T21:45:23.025Z,27.99
2023-02-08T21:46:23.192Z,28.00
2023-02-08T21:47:23.002Z,28.01
2023-02-08T21:48:22.976Z,28.02
2023-02-08T21:49:22.960Z,28.01
2023-02-08T21:50:22.928Z,28.00
2023-02-08T21:51:22.929Z,28.00
2023-02-08T21:52:22.895Z,27.99
